Time;durP1;ratioP1;P1;durP2;ratioP2;P2;SDS_P1;SDS_P2;PMS_P1;PMS_P2;Temp;Humidity;BMP_temperature;BMP_pressure;BME280_temperature;BME280_humidity;BME280_pressure;Samples;Min_cycle;Max_cycle;Signal;HPM_P1;HPM_P2
2023/04/07 00:02:18;;;;;;;13.50;12.03;;;4.10;99.90;;;-141.84;52.50;19387.06;5071167;28;20206;-54
2023/04/07 00:04:46;;;;;;;13.50;11.87;;;4.00;99.90;;;-141.84;52.59;19380.97;5071372;28;20206;-53
2023/04/07 00:07:16;;;;;;;13.07;11.60;;;4.00;99.90;;;-141.84;52.56;19395.19;5071029;28;20234;-52
2023/04/07 00:09:44;;;;;;;13.13;11.83;;;3.90;99.90;;;-141.84;52.37;19397.22;5067426;28;20568;-51
2023/04/07 00:12:12;;;;;;;13.10;11.70;;;4.00;99.90;;;-141.84;52.80;19403.31;5071012;28;20236;-51
2023/04/07 00:14:40;;;;;;;14.13;11.43;;;3.90;99.90;;;-141.84;52.84;19378.94;5071030;28;20222;-54
2023/04/07 00:17:09;;;;;;;13.43;12.03;;;3.90;99.90;;;-141.84;52.86;19362.69;5070900;28;20572;-51
2023/04/07 00:19:37;;;;;;;13.03;11.03;;;3.80;99.90;;;-141.84;52.82;19385.03;5070766;28;20203;-51
2023/04/07 00:22:05;;;;;;;12.83;11.47;;;3.80;99.90;;;-141.84;53.09;19376.91;5070758;28;20226;-53
2023/04/07 00:24:35;;;;;;;13.83;12.00;;;3.80;99.90;;;-141.84;53.25;19360.66;5070624;28;20265;-53
2023/04/07 00:27:03;;;;;;;14.70;11.80;;;3.80;99.90;;;-141.84;53.25;19338.28;5070554;28;20779;-52
2023/04/07 00:29:31;;;;;;;13.77;11.67;;;3.70;99.90;;;-141.84;52.99;19366.75;5069740;28;20770;-51
2023/04/07 00:31:59;;;;;;;12.93;11.57;;;3.70;99.90;;;-141.84;52.77;19378.94;5071431;28;20215;-53
2023/04/07 00:34:27;;;;;;;13.13;11.63;;;3.80;99.90;;;-141.84;52.67;19362.69;5070480;28;20271;-52
2023/04/07 00:36:55;;;;;;;13.23;11.57;;;3.80;99.90;;;-141.84;52.83;19387.06;5070380;28;20213;-52
2023/04/07 00:39:24;;;;;;;12.63;11.33;;;3.80;99.90;;;-141.84;52.89;19360.66;5070387;28;20221;-51
2023/04/07 00:41:55;;;;;;;13.57;11.97;;;3.80;99.90;;;-141.84;52.77;19383.00;5070369;28;20265;-49
2023/04/07 00:44:23;;;;;;;14.93;11.40;;;3.80;99.90;;;-141.84;52.55;19358.63;5070489;28;20202;-54
2023/04/07 00:46:51;;;;;;;12.70;11.40;;;3.80;99.90;;;-141.84;53.06;19338.28;5070894;28;20564;-48
2023/04/07 00:49:19;;;;;;;13.20;11.07;;;3.80;99.90;;;-141.84;53.15;19370.81;5070279;28;20262;-52
2023/04/07 00:51:48;;;;;;;13.70;11.63;;;3.70;99.90;;;-141.84;52.84;19366.75;5070186;28;20231;-53
2023/04/07 00:54:17;;;;;;;14.17;12.07;;;3.80;99.90;;;-141.84;52.96;19366.75;5070222;28;20239;-50
2023/04/07 00:56:46;;;;;;;14.37;12.13;;;3.80;99.90;;;-141.84;53.60;19360.66;5070171;28;20221;-50
2023/04/07 00:59:15;;;;;;;13.10;11.67;;;3.70;99.90;;;-141.84;53.84;19334.22;5070028;28;20210;-50
2023/04/07 01:01:53;;;;;;;14.63;11.83;;;3.60;99.90;;;-141.84;53.86;19376.91;5078321;28;20222;-52
2023/04/07 01:04:31;;;;;;;14.20;12.70;;;3.60;99.90;;;-141.84;53.54;19352.53;5083794;28;20774;-52
2023/04/07 01:07:09;;;;;;;15.00;11.93;;;3.60;99.90;;;-141.84;53.76;19348.47;5063649;28;20229;-54
2023/04/07 01:09:45;;;;;;;14.73;11.67;;;3.60;99.90;;;-141.84;53.52;19364.72;5062734;28;20226;-53
2023/04/07 01:12:39;;;;;;;14.07;12.17;;;3.60;99.90;;;-141.84;53.26;19344.41;5050117;28;20599;-54
2023/04/07 01:15:12;;;;;;;13.47;11.57;;;3.60;99.90;;;-141.84;53.81;19346.44;5049855;28;20237;-53
2023/04/07 01:17:48;;;;;;;12.57;11.20;;;3.50;99.90;;;-141.84;53.41;19338.28;5058753;28;20594;-52
2023/04/07 01:20:22;;;;;;;13.13;11.53;;;3.60;99.90;;;-141.84;53.18;19370.81;5069313;28;20287;-50
2023/04/07 01:22:55;;;;;;;13.87;11.57;;;3.60;99.90;;;-141.84;53.59;19303.75;5070634;28;20200;-51
2023/04/07 01:25:44;;;;;;;15.30;11.90;;;3.50;99.90;;;-141.84;53.72;19305.78;5069685;28;20232;-53
2023/04/07 01:28:45;;;;;;;15.17;12.13;;;3.50;99.90;;;-141.84;53.99;19326.09;5069743;28;20232;-50
2023/04/07 01:31:17;;;;;;;14.17;11.80;;;3.40;99.90;;;-141.84;52.91;19356.59;5069974;28;20224;-55
2023/04/07 01:33:50;;;;;;;14.10;11.47;;;3.60;99.90;;;-141.84;53.18;19338.28;5069842;28;20225;-52
2023/04/07 01:36:20;;;;;;;14.27;12.03;;;3.50;99.90;;;-141.84;54.03;19322.03;5069426;28;20235;-53
2023/04/07 01:38:52;;;;;;;12.60;11.13;;;3.40;99.90;;;-141.84;54.05;19289.53;5051023;28;20227;-50
2023/04/07 01:41:26;;;;;;;13.33;11.93;;;3.40;99.90;;;-141.84;54.12;19344.41;5070614;28;20217;-50
2023/04/07 01:43:56;;;;;;;12.60;10.87;;;3.40;99.90;;;-141.84;54.48;19303.75;5076674;28;20682;-52
2023/04/07 01:46:26;;;;;;;12.23;10.93;;;3.30;99.90;;;-141.84;54.75;19313.91;5076407;28;20228;-50
2023/04/07 01:48:55;;;;;;;12.03;10.80;;;3.20;99.90;;;-141.84;54.61;19303.75;5076320;28;20250;-53
2023/04/07 01:51:26;;;;;;;12.80;11.40;;;3.20;99.90;;;-141.84;54.91;19289.53;5076198;28;20222;-51
2023/04/07 01:53:55;;;;;;;14.77;11.43;;;3.20;99.90;;;-141.84;55.24;19295.63;5076434;28;20232;-54
2023/04/07 01:56:24;;;;;;;13.93;11.27;;;3.10;99.90;;;-141.84;55.34;19322.03;5076194;28;20910;-51
2023/04/07 01:58:52;;;;;;;13.67;11.33;;;3.10;99.90;;;-141.84;55.34;19281.41;5092006;28;20231;-53
2023/04/07 02:01:20;;;;;;;12.13;10.77;;;3.10;99.90;;;-141.84;55.11;19320.00;5079356;28;20705;-53
2023/04/07 02:04:03;;;;;;;12.10;10.80;;;3.10;99.90;;;-141.84;55.59;19287.50;5074403;28;20335;-49
2023/04/07 02:06:38;;;;;;;14.17;11.77;;;3.00;99.90;;;-141.84;55.90;19295.63;5066871;28;20225;-54
2023/04/07 02:09:11;;;;;;;12.83;11.20;;;3.00;99.90;;;-141.84;56.04;19293.59;5076128;28;20231;-55
2023/04/07 02:11:43;;;;;;;12.73;11.33;;;3.00;99.90;;;-141.84;55.60;19330.16;5075872;28;20775;-53
2023/04/07 02:14:14;;;;;;;11.73;10.33;;;3.00;99.90;;;-141.84;55.73;19283.44;5076218;28;20198;-52
2023/04/07 02:16:44;;;;;;;12.47;11.10;;;3.00;99.90;;;-141.84;56.33;19273.28;5076789;28;20188;-53
2023/04/07 02:19:16;;;;;;;12.30;11.10;;;2.90;99.90;;;-141.84;56.89;19275.31;5075518;28;20217;-50
2023/04/07 02:21:46;;;;;;;13.60;10.73;;;2.80;99.90;;;-141.84;57.10;19257.00;5075791;28;20228;-49
2023/04/07 02:24:14;;;;;;;12.60;11.13;;;2.80;99.90;;;-141.84;56.97;19275.31;5075781;28;20247;-52
2023/04/07 02:26:43;;;;;;;13.10;10.87;;;2.80;99.90;;;-141.84;56.70;19279.38;5076213;28;20221;-52
2023/04/07 02:29:11;;;;;;;12.07;10.63;;;2.80;99.90;;;-141.84;56.88;19293.59;5076004;28;20220;-50
2023/04/07 02:31:39;;;;;;;12.23;10.30;;;2.80;99.90;;;-141.84;56.58;19285.47;5077008;28;20203;-53
2023/04/07 02:34:08;;;;;;;11.17;9.87;;;2.80;99.90;;;-141.84;56.64;19324.06;5076006;28;20286;-48
2023/04/07 02:36:37;;;;;;;12.33;10.77;;;2.80;99.90;;;-141.84;56.76;19303.75;5073416;28;20779;-50
2023/04/07 02:39:05;;;;;;;11.13;9.97;;;2.80;99.90;;;-141.84;56.30;19315.94;5055946;28;20235;-53
2023/04/07 02:41:33;;;;;;;12.63;10.40;;;2.80;99.90;;;-141.84;56.19;19283.44;5071387;28;20224;-52
2023/04/07 02:44:02;;;;;;;11.63;10.43;;;2.80;99.90;;;-141.84;56.19;19267.16;5076276;28;20195;-51
2023/04/07 02:46:30;;;;;;;11.67;10.50;;;2.90;99.90;;;-141.84;56.49;19291.56;5075970;28;20217;-51
2023/04/07 02:48:58;;;;;;;12.30;10.67;;;2.80;99.90;;;-141.84;56.68;19275.31;5075854;28;20754;-49
2023/04/07 02:51:27;;;;;;;11.67;10.07;;;2.80;99.90;;;-141.84;56.72;19250.91;5072155;28;20551;-51
2023/04/07 02:53:57;;;;;;;12.00;9.97;;;2.80;99.90;;;-141.84;56.60;19267.16;5077631;28;20231;-49
2023/04/07 02:56:25;;;;;;;12.67;10.40;;;2.80;99.90;;;-141.84;56.70;19289.53;5085924;28;20312;-53
2023/04/07 02:58:53;;;;;;;12.77;9.60;;;2.80;99.90;;;-141.84;56.85;19285.47;5072672;28;20217;-51
2023/04/07 03:01:21;;;;;;;11.17;9.90;;;2.80;99.90;;;-141.84;56.75;19261.06;5072043;28;20332;-52
2023/04/07 03:03:50;;;;;;;11.20;10.00;;;2.80;99.90;;;-141.84;56.32;19297.66;5070188;28;20236;-51
2023/04/07 03:06:18;;;;;;;11.20;10.00;;;2.90;99.90;;;-141.84;56.37;19277.34;5060787;28;20651;-53
2023/04/07 03:08:46;;;;;;;13.23;10.47;;;2.80;99.90;;;-141.84;56.61;19279.38;5072351;28;20333;-52
2023/04/07 03:11:16;;;;;;;12.47;10.20;;;2.80;99.90;;;-141.84;56.43;19267.16;5052424;28;20202;-49
2023/04/07 03:13:44;;;;;;;12.03;10.23;;;2.80;99.90;;;-141.84;56.25;19291.56;5052813;28;20208;-54
2023/04/07 03:16:12;;;;;;;11.40;9.70;;;2.80;99.90;;;-141.84;56.79;19283.44;5052024;28;20316;-52
2023/04/07 03:18:40;;;;;;;12.70;9.70;;;2.80;99.90;;;-141.84;57.07;19259.03;5067430;28;20231;-54
2023/04/07 03:21:09;;;;;;;12.10;9.77;;;2.70;99.90;;;-141.84;57.31;19252.94;5070701;28;20229;-51
2023/04/07 03:23:37;;;;;;;11.17;9.60;;;2.70;99.90;;;-141.84;57.14;19254.97;5072036;28;20230;-54
2023/04/07 03:26:05;;;;;;;12.17;9.57;;;2.70;99.90;;;-141.84;57.39;19261.06;5072197;28;20678;-53
2023/04/07 03:28:35;;;;;;;12.23;10.17;;;2.70;99.90;;;-141.84;57.24;19267.16;5072676;28;20673;-53
2023/04/07 03:31:03;;;;;;;10.67;9.50;;;2.70;99.90;;;-141.84;57.24;19252.94;5071705;28;20230;-54
2023/04/07 03:33:31;;;;;;;11.43;9.50;;;2.70;99.90;;;-141.84;57.50;19281.41;5072019;28;20607;-52
2023/04/07 03:35:59;;;;;;;10.53;9.37;;;2.60;99.90;;;-141.84;57.69;19240.75;5071301;28;20238;-54
2023/04/07 03:38:28;;;;;;;10.57;9.47;;;2.60;99.90;;;-141.84;57.88;19248.88;5054576;28;20308;-51
2023/04/07 03:40:56;;;;;;;12.10;10.10;;;2.60;99.90;;;-141.84;57.76;19265.13;5052266;28;20197;-50
2023/04/07 03:43:24;;;;;;;10.33;9.07;;;2.70;99.90;;;-141.84;57.93;19277.34;5066074;28;20708;-50
2023/04/07 03:45:54;;;;;;;10.80;9.43;;;2.60;99.90;;;-141.84;57.95;19259.03;5071591;28;20248;-52
2023/04/07 03:48:23;;;;;;;10.87;9.77;;;2.50;99.90;;;-141.84;57.52;19269.22;5071648;28;20274;-51
2023/04/07 03:50:51;;;;;;;10.73;9.63;;;2.60;99.90;;;-141.84;57.84;19238.72;5082120;28;20223;-63
2023/04/07 03:53:19;;;;;;;10.50;9.40;;;2.50;99.90;;;-141.84;58.12;19267.16;5091470;28;20689;-63
2023/04/07 03:55:47;;;;;;;10.60;9.50;;;2.50;99.90;;;-141.84;57.98;19269.22;5071517;28;20667;-64
2023/04/07 03:58:15;;;;;;;10.07;9.07;;;2.50;99.90;;;-141.84;58.94;19222.47;5071290;28;20233;-63
2023/04/07 04:00:44;;;;;;;9.77;8.77;;;2.40;99.90;;;-141.84;58.51;19277.34;5071242;28;20631;-64
2023/04/07 04:03:14;;;;;;;9.67;8.60;;;2.40;99.90;;;-141.84;57.68;19250.91;5070975;28;20720;-64
2023/04/07 04:05:42;;;;;;;9.23;8.30;;;2.40;99.90;;;-141.84;57.69;19228.56;5071127;28;20242;-63
2023/04/07 04:08:10;;;;;;;9.23;8.23;;;2.40;99.90;;;-141.84;57.76;19242.78;5070931;28;20203;-61
2023/04/07 04:10:38;;;;;;;9.13;8.23;;;2.40;99.90;;;-141.84;57.62;19257.00;5071736;28;20200;-64
2023/04/07 04:13:07;;;;;;;9.80;8.80;;;2.40;99.90;;;-141.84;57.59;19228.56;5070956;28;20595;-64
2023/04/07 04:15:35;;;;;;;9.63;8.63;;;2.40;99.90;;;-141.84;57.90;19228.56;5070844;28;20263;-64
2023/04/07 04:18:03;;;;;;;9.63;8.20;;;2.40;99.90;;;-141.84;57.61;19236.69;5070778;28;20270;-64
2023/04/07 04:20:33;;;;;;;9.90;8.90;;;2.40;99.90;;;-141.84;57.77;19242.78;5070557;28;20264;-63
2023/04/07 04:23:01;;;;;;;10.30;9.20;;;2.40;99.90;;;-141.84;58.04;19259.03;5071000;28;20217;-63
2023/04/07 04:25:29;;;;;;;9.23;8.33;;;2.40;99.90;;;-141.84;58.44;19224.50;5070774;28;20231;-63
2023/04/07 04:27:57;;;;;;;11.00;9.37;;;2.30;99.90;;;-141.84;58.70;19204.19;5070588;28;20599;-64
2023/04/07 04:30:25;;;;;;;9.13;8.20;;;2.30;99.90;;;-141.84;58.79;19250.91;5070722;28;20745;-64
2023/04/07 04:32:54;;;;;;;10.43;9.30;;;2.20;99.90;;;-141.84;59.20;19222.47;5070503;28;20256;-64
2023/04/07 04:35:22;;;;;;;10.90;8.13;;;2.20;99.90;;;-141.84;59.27;19228.56;5070664;28;20196;-64
2023/04/07 04:37:52;;;;;;;12.47;8.73;;;2.20;99.90;;;-141.84;59.38;19240.75;5058711;28;20256;-64
2023/04/07 04:40:20;;;;;;;10.33;9.00;;;2.10;99.90;;;-141.84;59.74;19244.81;5050351;28;20231;-64
2023/04/07 04:42:48;;;;;;;9.83;8.70;;;2.10;99.90;;;-141.84;59.74;19261.06;5059993;28;20229;-64
2023/04/07 04:45:17;;;;;;;10.43;9.33;;;2.10;99.90;;;-141.84;59.67;19220.44;5070453;28;20224;-64
2023/04/07 04:47:45;;;;;;;11.33;10.13;;;2.10;99.90;;;-141.84;58.89;19220.44;5086536;28;20743;-65
2023/04/07 04:50:13;;;;;;;10.47;9.40;;;2.20;99.90;;;-141.84;59.10;19238.72;5085155;28;20219;-63
2023/04/07 04:52:42;;;;;;;10.27;9.17;;;2.20;99.90;;;-141.84;59.39;19232.63;5070725;28;20280;-63
2023/04/07 04:55:12;;;;;;;11.50;9.80;;;2.20;99.90;;;-141.84;59.57;19238.72;5070381;28;20252;-65
2023/04/07 04:57:41;;;;;;;10.00;8.97;;;2.20;99.90;;;-141.84;58.95;19236.69;5070005;28;20331;-65
2023/04/07 05:00:11;;;;;;;11.23;9.70;;;2.20;99.90;;;-141.84;59.43;19226.53;5070231;28;20754;-64
2023/04/07 05:02:40;;;;;;;10.50;9.10;;;2.20;99.90;;;-141.84;59.60;19206.22;5069959;28;20231;-65
2023/04/07 05:05:09;;;;;;;11.90;9.60;;;2.20;99.90;;;-141.84;59.55;19226.53;5070032;28;20196;-63
2023/04/07 05:07:39;;;;;;;10.40;9.30;;;2.20;99.90;;;-141.84;59.06;19224.50;5070085;28;20665;-66
2023/04/07 05:10:08;;;;;;;11.33;9.50;;;2.30;99.90;;;-141.84;59.22;19220.44;5069855;28;20225;-63
2023/04/07 05:12:38;;;;;;;11.53;9.57;;;2.30;99.90;;;-141.84;58.56;19234.66;5069822;28;20233;-64
2023/04/07 05:15:08;;;;;;;11.83;9.27;;;2.30;99.90;;;-141.84;58.56;19230.59;5069645;28;20228;-65
2023/04/07 05:17:36;;;;;;;11.27;9.53;;;2.30;99.90;;;-141.84;58.68;19216.38;5069651;28;20226;-64
2023/04/07 05:20:06;;;;;;;10.47;9.37;;;2.40;99.90;;;-141.84;58.94;19240.75;5070270;28;20204;-64
2023/04/07 05:22:35;;;;;;;11.40;9.40;;;2.40;99.90;;;-141.84;58.49;19248.88;5069730;28;20220;-63
2023/04/07 05:25:04;;;;;;;11.03;9.87;;;2.50;99.90;;;-141.84;57.87;19259.03;5069575;28;20236;-63
2023/04/07 05:27:32;;;;;;;9.80;8.80;;;2.70;99.90;;;-141.84;57.56;19257.00;5069997;28;20229;-65
2023/04/07 05:30:02;;;;;;;11.77;9.57;;;2.80;99.90;;;-141.84;57.17;19293.59;5069667;28;20228;-63
2023/04/07 05:32:30;;;;;;;11.43;9.97;;;2.90;99.90;;;-141.84;56.84;19244.81;5066861;28;20225;-63
2023/04/07 05:34:58;;;;;;;10.37;9.27;;;3.00;99.90;;;-141.84;56.89;19303.75;5050394;28;20302;-64
2023/04/07 05:37:26;;;;;;;11.53;10.27;;;3.00;99.90;;;-141.84;56.91;19257.00;5058751;28;20745;-62
2023/04/07 05:39:55;;;;;;;11.27;10.07;;;3.00;99.90;;;-141.84;56.66;19289.53;5049783;28;20256;-64
2023/04/07 05:42:23;;;;;;;11.60;10.40;;;3.00;99.90;;;-141.84;56.56;19273.28;5064072;28;20231;-63
2023/04/07 05:44:51;;;;;;;11.07;9.97;;;3.00;99.90;;;-141.84;57.10;19277.34;5069889;28;20254;-63
2023/04/07 05:47:21;;;;;;;11.07;9.83;;;2.90;99.90;;;-141.84;57.14;19289.53;5069425;28;20680;-64
2023/04/07 05:49:49;;;;;;;11.37;10.17;;;2.90;99.90;;;-141.84;56.83;19277.34;5070147;28;20224;-63
2023/04/07 05:52:17;;;;;;;12.63;10.30;;;3.00;99.90;;;-141.84;56.30;19277.34;5069653;28;20217;-63
2023/04/07 05:54:45;;;;;;;10.63;9.63;;;3.00;99.90;;;-141.84;56.32;19299.69;5069539;28;20240;-63
2023/04/07 05:57:13;;;;;;;11.87;10.13;;;3.00;99.90;;;-141.84;56.46;19293.59;5069863;28;20238;-63
2023/04/07 05:59:42;;;;;;;11.73;9.67;;;3.10;99.90;;;-141.84;56.15;19297.66;5069303;28;20225;-64
2023/04/07 06:02:10;;;;;;;12.47;10.20;;;3.10;99.90;;;-141.84;56.08;19281.41;5069352;28;20698;-63
2023/04/07 06:04:39;;;;;;;11.87;10.67;;;3.10;99.90;;;-141.84;56.37;19271.25;5069768;28;20225;-63
2023/04/07 06:07:08;;;;;;;12.83;11.50;;;3.10;99.90;;;-141.84;56.44;19285.47;5069186;28;20626;-64
2023/04/07 06:09:36;;;;;;;11.70;10.40;;;3.10;99.90;;;-141.84;56.48;19317.97;5069400;28;20602;-63
2023/04/07 06:12:05;;;;;;;12.97;11.47;;;3.10;99.90;;;-141.84;56.63;19299.69;5069326;28;20701;-64
2023/04/07 06:14:33;;;;;;;11.83;10.63;;;3.20;99.90;;;-141.84;56.49;19324.06;5069156;28;20251;-64
2023/04/07 06:17:02;;;;;;;12.00;10.70;;;3.20;99.90;;;-141.84;56.13;19315.94;5070121;28;20582;-64
2023/04/07 06:19:30;;;;;;;12.03;10.63;;;3.20;99.90;;;-141.84;55.91;19273.28;5069020;28;20221;-64
2023/04/07 06:21:59;;;;;;;12.90;11.40;;;3.30;99.90;;;-141.84;55.83;19322.03;5069387;28;20223;-64
2023/04/07 06:24:27;;;;;;;12.80;10.50;;;3.40;99.90;;;-141.84;55.73;19356.59;5069052;28;20718;-64
2023/04/07 06:26:56;;;;;;;13.10;11.27;;;3.50;99.90;;;-141.84;55.52;19362.69;5071732;28;20220;-64
2023/04/07 06:29:25;;;;;;;11.30;10.20;;;3.60;99.90;;;-141.84;54.83;19368.78;5073161;28;20305;-63
2023/04/07 06:31:53;;;;;;;14.03;11.37;;;3.70;99.90;;;-141.84;54.13;19358.63;5073378;28;20208;-64
2023/04/07 06:34:21;;;;;;;14.73;11.07;;;3.80;99.90;;;-141.84;53.57;19366.75;5072709;28;20614;-64
2023/04/07 06:36:49;;;;;;;12.47;11.10;;;4.00;99.90;;;-141.84;53.77;19366.75;5069097;28;20620;-63
2023/04/07 06:39:20;;;;;;;12.10;10.77;;;4.00;99.90;;;-141.84;53.78;19399.25;5069344;28;20281;-64
2023/04/07 06:41:48;;;;;;;12.23;10.90;;;4.20;99.90;;;-141.84;53.40;19374.88;5091735;28;20230;-63
2023/04/07 06:44:16;;;;;;;11.53;10.33;;;4.20;99.90;;;-141.84;53.27;19391.13;5054402;28;20589;-62
2023/04/07 06:46:46;;;;;;;12.13;10.83;;;4.30;99.90;;;-141.84;53.25;19403.31;5053359;28;20212;-62
2023/04/07 06:49:15;;;;;;;13.30;11.40;;;4.30;99.90;;;-141.84;53.32;19372.84;5061962;28;20781;-63
2023/04/07 06:51:43;;;;;;;12.30;11.00;;;4.20;99.90;;;-141.84;53.29;19378.94;5072427;28;20229;-65
2023/04/07 06:54:12;;;;;;;12.63;11.30;;;4.30;99.90;;;-141.84;53.75;19368.78;5072541;28;20225;-63
2023/04/07 06:56:43;;;;;;;12.60;11.27;;;4.30;99.90;;;-141.84;53.91;19411.44;5072643;28;20226;-64
2023/04/07 06:59:11;;;;;;;15.50;12.00;;;4.40;99.90;;;-141.84;53.44;19427.72;5072613;28;20208;-65
2023/04/07 07:01:40;;;;;;;12.50;11.20;;;4.50;99.90;;;-141.84;52.44;19378.94;5073189;28;20218;-64
2023/04/07 07:04:09;;;;;;;11.90;10.70;;;4.60;99.90;;;-141.84;52.16;19429.75;5071487;28;20633;-64
2023/04/07 07:06:37;;;;;;;12.73;10.70;;;4.60;99.90;;;-141.84;52.54;19431.78;5072039;28;20317;-63
2023/04/07 07:09:06;;;;;;;12.60;11.33;;;4.70;99.90;;;-141.84;52.40;19407.38;5071977;28;20233;-64
2023/04/07 07:11:34;;;;;;;11.97;10.73;;;4.70;99.90;;;-141.84;52.44;19423.66;5072338;28;20606;-65
2023/04/07 07:14:04;;;;;;;11.60;10.43;;;4.80;99.90;;;-141.84;52.19;19427.72;5072837;28;20332;-65
2023/04/07 07:16:32;;;;;;;12.83;11.40;;;4.80;99.90;;;-141.84;51.82;19433.81;5072270;28;20223;-65
2023/04/07 07:19:00;;;;;;;13.60;10.70;;;5.00;99.90;;;-141.84;51.71;19474.44;5071696;28;20303;-64
2023/04/07 07:21:28;;;;;;;12.73;11.43;;;5.00;99.90;;;-141.84;51.44;19504.94;5071825;28;20225;-64
2023/04/07 07:23:56;;;;;;;12.53;10.73;;;5.10;99.90;;;-141.84;50.47;19466.31;5071971;28;20318;-64
2023/04/07 07:26:25;;;;;;;12.07;10.77;;;5.30;99.90;;;-141.84;49.93;19509.00;5071909;28;20207;-64
2023/04/07 07:28:54;;;;;;;12.17;10.87;;;5.50;99.90;;;-141.84;49.17;19496.81;5072548;28;20217;-65
2023/04/07 07:31:24;;;;;;;12.77;10.77;;;5.60;99.90;;;-141.84;49.78;19500.88;5071655;28;20612;-66
2023/04/07 07:33:52;;;;;;;12.37;10.83;;;5.70;99.90;;;-141.84;49.83;19533.38;5071799;28;20232;-64
2023/04/07 07:36:20;;;;;;;12.37;11.10;;;6.00;99.90;;;-141.84;49.28;19578.09;5077051;28;20235;-63
2023/04/07 07:38:50;;;;;;;12.47;11.17;;;6.00;99.90;;;-141.84;48.88;19588.25;5054740;28;20714;-64
2023/04/07 07:41:18;;;;;;;12.37;10.40;;;6.10;99.90;;;-141.84;47.50;19555.75;5071778;28;20204;-64
2023/04/07 07:43:46;;;;;;;12.30;10.93;;;6.30;99.90;;;-141.84;46.79;19661.41;5072006;28;20335;-66
2023/04/07 07:46:15;;;;;;;12.13;10.87;;;6.50;99.90;;;-141.84;47.25;19610.59;5071469;28;20256;-63
2023/04/07 07:48:45;;;;;;;11.73;10.53;;;6.70;99.90;;;-141.84;47.36;19618.75;5071271;28;20734;-64
2023/04/07 07:51:14;;;;;;;12.07;10.73;;;6.80;99.90;;;-141.84;46.71;19667.50;5071237;28;20608;-65
2023/04/07 07:53:42;;;;;;;12.00;10.17;;;7.00;99.90;;;-141.84;46.07;19687.84;5071109;28;20247;-65
2023/04/07 07:56:10;;;;;;;12.87;11.47;;;7.30;99.90;;;-141.84;45.28;19722.38;5071361;28;20273;-64
2023/04/07 07:58:38;;;;;;;11.20;10.07;;;7.60;99.90;;;-141.84;44.93;19754.91;5071513;28;20207;-65
2023/04/07 08:01:07;;;;;;;10.20;9.20;;;7.70;99.90;;;-141.84;43.99;19761.00;5070775;28;20224;-65
2023/04/07 08:03:35;;;;;;;10.93;9.93;;;8.00;99.90;;;-141.84;44.16;19813.84;5070943;28;20232;-64
2023/04/07 08:06:05;;;;;;;11.00;9.83;;;8.10;99.90;;;-141.84;44.62;19799.63;5070900;28;20311;-65
2023/04/07 08:08:33;;;;;;;12.10;10.83;;;8.30;99.90;;;-141.84;43.50;19842.28;5071346;28;20227;-65
2023/04/07 08:11:02;;;;;;;11.43;10.10;;;8.50;99.90;;;-141.84;42.99;19832.13;5071565;28;20192;-65
2023/04/07 08:13:30;;;;;;;9.53;8.53;;;8.60;99.90;;;-141.84;41.82;19856.53;5070887;28;20606;-67
2023/04/07 08:15:58;;;;;;;10.60;9.10;;;8.60;99.90;;;-141.84;42.16;19824.00;5070892;28;20251;-66
2023/04/07 08:18:26;;;;;;;10.53;9.33;;;8.50;99.90;;;-141.84;42.19;19842.28;5070763;28;20233;-67
2023/04/07 08:20:54;;;;;;;10.53;9.07;;;8.60;99.90;;;-141.84;41.83;19876.84;5070168;28;20220;-67
2023/04/07 08:23:24;;;;;;;10.13;9.03;;;8.70;99.90;;;-141.84;41.15;19878.88;5070371;28;20232;-66
2023/04/07 08:25:52;;;;;;;11.87;9.17;;;8.90;99.90;;;-141.84;41.26;19927.66;5071523;28;20205;-65
2023/04/07 08:28:21;;;;;;;9.33;8.33;;;9.00;99.90;;;-141.84;40.67;19952.03;5070612;28;20251;-65
2023/04/07 08:30:50;;;;;;;10.80;8.40;;;9.30;99.90;;;-141.84;39.92;19952.03;5050716;28;20666;-64
2023/04/07 08:33:18;;;;;;;11.53;9.43;;;9.40;99.90;;;-141.84;39.38;19962.19;5090870;28;20227;-65
2023/04/07 08:35:46;;;;;;;10.03;8.73;;;9.50;99.90;;;-141.84;39.50;19984.56;5080630;28;20220;-66
2023/04/07 08:38:15;;;;;;;10.23;8.93;;;9.70;99.90;;;-141.84;39.08;19982.53;5055433;28;20693;-65
2023/04/07 08:40:44;;;;;;;10.20;9.20;;;9.90;99.90;;;-141.84;38.41;20031.31;5051191;28;20305;-65
2023/04/07 08:43:16;;;;;;;9.93;8.47;;;10.00;99.90;;;-141.84;38.46;20069.94;5063401;28;20223;-65
2023/04/07 08:45:46;;;;;;;9.30;8.30;;;10.10;99.90;;;-141.84;38.36;20065.84;5070244;28;20225;-65
2023/04/07 08:48:18;;;;;;;10.07;9.03;;;10.20;99.90;;;-141.84;38.82;20106.50;5070375;28;20298;-65
2023/04/07 08:50:51;;;;;;;10.30;9.00;;;10.30;99.90;;;-141.84;38.46;20120.75;5070050;28;20236;-65
2023/04/07 08:53:26;;;;;;;10.50;8.83;;;10.60;99.90;;;-141.84;38.46;20102.44;5070419;28;20203;-65
2023/04/07 08:55:57;;;;;;;10.70;9.60;;;10.70;99.90;;;-141.84;37.91;20128.88;5070269;28;20195;-65
2023/04/07 08:58:27;;;;;;;13.20;9.90;;;10.70;99.90;;;-141.84;36.99;20145.13;5070475;28;20228;-64
2023/04/07 09:00:55;;;;;;;11.30;10.10;;;10.80;99.90;;;-141.84;37.02;20139.03;5070138;28;20608;-67
2023/04/07 09:03:26;;;;;;;12.17;9.50;;;10.80;99.90;;;-141.84;37.52;20094.31;5069648;28;20224;-66
2023/04/07 09:05:56;;;;;;;11.57;9.27;;;10.70;99.90;;;-141.84;37.81;20151.22;5069146;28;20315;-65
2023/04/07 09:08:24;;;;;;;12.10;9.90;;;10.80;99.90;;;-141.84;37.94;20147.16;5059295;28;20235;-65
2023/04/07 09:10:52;;;;;;;9.80;8.80;;;10.70;99.90;;;-141.84;37.74;20098.38;5070454;28;20204;-66
2023/04/07 09:13:22;;;;;;;10.13;9.10;;;10.70;99.90;;;-141.84;37.32;20098.38;5069826;28;20220;-66
2023/04/07 09:15:50;;;;;;;9.93;8.93;;;10.80;99.90;;;-141.84;36.58;20155.28;5069601;28;20213;-66
2023/04/07 09:18:19;;;;;;;10.83;8.67;;;10.80;99.90;;;-141.84;36.74;20116.66;5070062;28;20247;-67
2023/04/07 09:20:59;;;;;;;10.20;9.10;;;10.80;99.90;;;-141.84;37.26;20120.75;5069523;28;20598;-66
2023/04/07 09:23:32;;;;;;;10.60;9.50;;;10.90;99.90;;;-141.84;37.18;20179.69;5070082;28;20235;-66
2023/04/07 09:26:19;;;;;;;10.57;9.10;;;11.00;99.90;;;-141.84;37.21;20195.94;5070699;28;20212;-67
2023/04/07 09:28:52;;;;;;;10.03;9.03;;;11.20;99.90;;;-141.84;36.81;20220.34;5072854;28;20231;-66
2023/04/07 09:31:21;;;;;;;9.57;7.73;;;11.30;99.90;;;-141.84;35.38;20260.97;5072292;28;20212;-67
2023/04/07 09:33:50;;;;;;;10.43;8.17;;;11.50;99.90;;;-141.84;34.54;20283.34;5069866;28;20240;-69
2023/04/07 09:36:19;;;;;;;8.97;8.07;;;11.70;99.90;;;-141.84;34.39;20275.22;5069040;28;20734;-67
2023/04/07 09:38:48;;;;;;;8.27;7.43;;;11.80;99.90;;;-141.84;34.14;20315.88;5069175;28;20303;-67
2023/04/07 09:41:17;;;;;;;8.77;7.57;;;12.00;99.90;;;-141.84;34.98;20368.72;5069590;28;20641;-66
2023/04/07 09:43:47;;;;;;;9.27;8.37;;;12.10;99.90;;;-141.84;34.57;20346.34;5069084;28;20212;-66
2023/04/07 09:46:18;;;;;;;9.57;8.10;;;12.20;99.90;;;-141.84;34.61;20352.44;5054075;28;20641;-66
2023/04/07 09:48:47;;;;;;;10.07;8.90;;;12.30;99.90;;;-141.84;34.59;20360.59;5049809;28;20233;-66
2023/04/07 09:51:17;;;;;;;9.37;8.47;;;12.40;99.90;;;-141.84;34.56;20391.06;5049923;28;20225;-66
2023/04/07 09:53:48;;;;;;;9.50;8.43;;;12.40;99.90;;;-141.84;34.80;20403.25;5050072;28;20248;-66
2023/04/07 09:56:21;;;;;;;10.67;9.17;;;12.30;99.90;;;-141.84;34.61;20378.88;5050148;28;20190;-65
2023/04/07 09:58:52;;;;;;;10.37;9.37;;;12.40;99.90;;;-141.84;35.19;20360.59;5049794;28;20192;-67
2023/04/07 10:01:21;;;;;;;10.60;9.33;;;12.40;99.90;;;-141.84;35.12;20405.31;5052792;28;20249;-66
2023/04/07 10:03:51;;;;;;;10.87;9.77;;;12.50;99.90;;;-141.84;35.10;20411.41;5055589;28;20609;-66
2023/04/07 10:06:20;;;;;;;10.70;9.60;;;12.60;99.90;;;-141.84;35.76;20356.50;5062564;28;20233;-65
2023/04/07 10:08:48;;;;;;;10.37;9.37;;;12.30;99.90;;;-141.84;35.94;20324.00;5073541;28;20220;-66
2023/04/07 10:11:17;;;;;;;10.20;9.20;;;12.30;99.90;;;-141.84;36.39;20362.63;5073679;28;20213;-65
2023/04/07 10:13:46;;;;;;;11.23;10.17;;;12.30;99.90;;;-141.84;36.14;20354.47;5073227;28;20209;-65